sensor_id;sensor_type;location;lat;lon;timestamp;P1;durP1;ratioP1;P2;durP2;ratioP2
24619;SDS011;12763;55.802;37.404;2023-07-31T00:00:30;7.57;;;4.50;;
24619;SDS011;12763;55.802;37.404;2023-07-31T00:02:56;9.23;;;5.35;;
24619;SDS011;12763;55.802;37.404;2023-07-31T00:05:21;8.10;;;4.72;;
24619;SDS011;12763;55.802;37.404;2023-07-31T00:07:47;12.85;;;4.82;;
24619;SDS011;12763;55.802;37.404;2023-07-31T00:10:13;7.65;;;5.03;;
24619;SDS011;12763;55.802;37.404;2023-07-31T00:12:39;11.02;;;5.53;;
24619;SDS011;12763;55.802;37.404;2023-07-31T00:15:06;7.75;;;4.32;;
24619;SDS011;12763;55.802;37.404;2023-07-31T00:17:33;7.93;;;4.25;;
24619;SDS011;12763;55.802;37.404;2023-07-31T00:19:59;8.65;;;4.05;;
24619;SDS011;12763;55.802;37.404;2023-07-31T00:22:24;6.68;;;4.05;;
24619;SDS011;12763;55.802;37.404;2023-07-31T00:24:50;6.82;;;4.00;;
24619;SDS011;12763;55.802;37.404;2023-07-31T00:27:16;10.18;;;4.55;;
24619;SDS011;12763;55.802;37.404;2023-07-31T00:29:43;8.30;;;4.25;;
24619;SDS011;12763;55.802;37.404;2023-07-31T00:32:09;7.32;;;4.32;;
24619;SDS011;12763;55.802;37.404;2023-07-31T00:34:36;9.00;;;4.50;;
24619;SDS011;12763;55.802;37.404;2023-07-31T00:37:02;7.20;;;4.20;;
24619;SDS011;12763;55.802;37.404;2023-07-31T00:39:29;6.20;;;4.03;;
24619;SDS011;12763;55.802;37.404;2023-07-31T00:41:56;9.10;;;4.03;;
24619;SDS011;12763;55.802;37.404;2023-07-31T00:44:22;7.47;;;3.95;;
24619;SDS011;12763;55.802;37.404;2023-07-31T00:46:48;8.75;;;4.82;;
24619;SDS011;12763;55.802;37.404;2023-07-31T00:49:15;10.43;;;4.25;;
24619;SDS011;12763;55.802;37.404;2023-07-31T00:51:41;10.98;;;4.57;;
24619;SDS011;12763;55.802;37.404;2023-07-31T00:54:07;10.23;;;4.65;;
24619;SDS011;12763;55.802;37.404;2023-07-31T00:56:33;11.65;;;4.55;;
24619;SDS011;12763;55.802;37.404;2023-07-31T00:59:00;9.73;;;4.63;;
24619;SDS011;12763;55.802;37.404;2023-07-31T01:01:26;10.77;;;4.53;;
24619;SDS011;12763;55.802;37.404;2023-07-31T01:03:52;10.18;;;3.92;;
24619;SDS011;12763;55.802;37.404;2023-07-31T01:06:36;7.03;;;4.25;;
24619;SDS011;12763;55.802;37.404;2023-07-31T01:09:18;8.23;;;3.55;;
24619;SDS011;12763;55.802;37.404;2023-07-31T01:11:53;12.40;;;3.92;;
24619;SDS011;12763;55.802;37.404;2023-07-31T01:14:22;7.30;;;3.30;;
24619;SDS011;12763;55.802;37.404;2023-07-31T01:16:48;6.60;;;3.65;;
24619;SDS011;12763;55.802;37.404;2023-07-31T01:19:14;7.60;;;3.95;;
24619;SDS011;12763;55.802;37.404;2023-07-31T01:32:40;8.52;;;4.40;;
24619;SDS011;12763;55.802;37.404;2023-07-31T01:35:08;5.07;;;3.25;;
24619;SDS011;12763;55.802;37.404;2023-07-31T01:37:35;7.10;;;4.05;;
24619;SDS011;12763;55.802;37.404;2023-07-31T01:40:01;6.95;;;3.70;;
24619;SDS011;12763;55.802;37.404;2023-07-31T01:42:30;10.52;;;4.15;;
24619;SDS011;12763;55.802;37.404;2023-07-31T01:44:56;4.90;;;3.70;;
24619;SDS011;12763;55.802;37.404;2023-07-31T01:47:22;7.30;;;3.83;;
24619;SDS011;12763;55.802;37.404;2023-07-31T01:49:49;6.47;;;4.00;;
24619;SDS011;12763;55.802;37.404;2023-07-31T01:52:15;9.25;;;4.07;;
24619;SDS011;12763;55.802;37.404;2023-07-31T01:54:41;6.13;;;3.53;;
24619;SDS011;12763;55.802;37.404;2023-07-31T01:57:07;7.93;;;3.65;;
24619;SDS011;12763;55.802;37.404;2023-07-31T01:59:33;7.63;;;4.03;;
24619;SDS011;12763;55.802;37.404;2023-07-31T02:01:59;7.22;;;3.67;;
24619;SDS011;12763;55.802;37.404;2023-07-31T02:04:25;8.90;;;4.47;;
24619;SDS011;12763;55.802;37.404;2023-07-31T02:06:52;11.10;;;4.38;;
24619;SDS011;12763;55.802;37.404;2023-07-31T02:09:18;9.00;;;4.28;;
24619;SDS011;12763;55.802;37.404;2023-07-31T02:11:44;6.38;;;3.97;;
24619;SDS011;12763;55.802;37.404;2023-07-31T02:14:10;7.55;;;4.25;;
24619;SDS011;12763;55.802;37.404;2023-07-31T02:16:36;8.30;;;4.03;;
24619;SDS011;12763;55.802;37.404;2023-07-31T02:19:02;5.03;;;3.90;;
24619;SDS011;12763;55.802;37.404;2023-07-31T02:21:28;8.07;;;4.20;;
24619;SDS011;12763;55.802;37.404;2023-07-31T02:23:54;8.07;;;3.97;;
24619;SDS011;12763;55.802;37.404;2023-07-31T02:26:20;12.13;;;4.15;;
24619;SDS011;12763;55.802;37.404;2023-07-31T02:28:46;7.22;;;4.25;;
24619;SDS011;12763;55.802;37.404;2023-07-31T02:31:12;11.40;;;4.47;;
24619;SDS011;12763;55.802;37.404;2023-07-31T02:33:39;8.95;;;4.60;;
24619;SDS011;12763;55.802;37.404;2023-07-31T02:36:05;5.72;;;4.22;;
24619;SDS011;12763;55.802;37.404;2023-07-31T02:38:31;9.90;;;4.80;;
24619;SDS011;12763;55.802;37.404;2023-07-31T02:40:57;10.50;;;4.20;;
24619;SDS011;12763;55.802;37.404;2023-07-31T02:43:23;7.45;;;4.65;;
24619;SDS011;12763;55.802;37.404;2023-07-31T02:45:52;11.05;;;4.93;;
24619;SDS011;12763;55.802;37.404;2023-07-31T02:48:19;13.63;;;5.15;;
24619;SDS011;12763;55.802;37.404;2023-07-31T02:50:45;7.80;;;4.38;;
24619;SDS011;12763;55.802;37.404;2023-07-31T02:53:11;11.50;;;4.75;;
24619;SDS011;12763;55.802;37.404;2023-07-31T02:55:37;11.95;;;4.53;;
24619;SDS011;12763;55.802;37.404;2023-07-31T02:58:04;10.43;;;4.72;;
24619;SDS011;12763;55.802;37.404;2023-07-31T03:00:29;6.07;;;4.15;;
24619;SDS011;12763;55.802;37.404;2023-07-31T03:02:55;9.43;;;4.85;;
24619;SDS011;12763;55.802;37.404;2023-07-31T03:05:21;7.40;;;4.75;;
24619;SDS011;12763;55.802;37.404;2023-07-31T03:07:47;15.20;;;4.93;;
24619;SDS011;12763;55.802;37.404;2023-07-31T03:10:13;7.93;;;4.68;;
24619;SDS011;12763;55.802;37.404;2023-07-31T03:12:40;8.63;;;4.57;;
24619;SDS011;12763;55.802;37.404;2023-07-31T03:15:07;7.63;;;4.63;;
24619;SDS011;12763;55.802;37.404;2023-07-31T03:17:33;7.28;;;4.35;;
24619;SDS011;12763;55.802;37.404;2023-07-31T03:20:00;8.02;;;4.80;;
24619;SDS011;12763;55.802;37.404;2023-07-31T03:22:25;8.25;;;4.65;;
24619;SDS011;12763;55.802;37.404;2023-07-31T03:24:51;12.68;;;5.25;;
24619;SDS011;12763;55.802;37.404;2023-07-31T03:27:18;7.85;;;4.82;;
24619;SDS011;12763;55.802;37.404;2023-07-31T03:29:43;8.05;;;4.68;;
24619;SDS011;12763;55.802;37.404;2023-07-31T03:32:09;9.25;;;5.47;;
24619;SDS011;12763;55.802;37.404;2023-07-31T03:34:35;9.02;;;4.63;;
24619;SDS011;12763;55.802;37.404;2023-07-31T03:37:01;11.75;;;5.78;;
24619;SDS011;12763;55.802;37.404;2023-07-31T03:39:27;12.05;;;5.28;;
24619;SDS011;12763;55.802;37.404;2023-07-31T03:41:53;10.85;;;5.32;;
24619;SDS011;12763;55.802;37.404;2023-07-31T03:44:19;14.00;;;5.80;;
24619;SDS011;12763;55.802;37.404;2023-07-31T03:46:45;11.40;;;4.97;;
24619;SDS011;12763;55.802;37.404;2023-07-31T03:49:11;13.05;;;5.50;;
24619;SDS011;12763;55.802;37.404;2023-07-31T03:51:37;8.75;;;4.80;;
24619;SDS011;12763;55.802;37.404;2023-07-31T03:54:03;15.77;;;5.10;;
24619;SDS011;12763;55.802;37.404;2023-07-31T03:56:29;9.20;;;5.05;;
24619;SDS011;12763;55.802;37.404;2023-07-31T03:58:54;11.23;;;4.43;;
24619;SDS011;12763;55.802;37.404;2023-07-31T04:01:23;11.27;;;4.40;;
24619;SDS011;12763;55.802;37.404;2023-07-31T04:03:49;10.20;;;4.63;;
24619;SDS011;12763;55.802;37.404;2023-07-31T04:06:15;10.70;;;4.90;;
24619;SDS011;12763;55.802;37.404;2023-07-31T04:08:43;7.22;;;4.97;;
24619;SDS011;12763;55.802;37.404;2023-07-31T04:11:10;9.85;;;5.10;;
24619;SDS011;12763;55.802;37.404;2023-07-31T04:13:37;11.02;;;5.22;;
24619;SDS011;12763;55.802;37.404;2023-07-31T04:16:04;10.25;;;4.68;;
24619;SDS011;12763;55.802;37.404;2023-07-31T04:18:30;11.25;;;5.25;;
24619;SDS011;12763;55.802;37.404;2023-07-31T04:20:56;7.75;;;5.10;;
24619;SDS011;12763;55.802;37.404;2023-07-31T04:23:24;11.68;;;5.32;;
24619;SDS011;12763;55.802;37.404;2023-07-31T04:25:51;11.32;;;5.45;;
24619;SDS011;12763;55.802;37.404;2023-07-31T04:28:16;10.32;;;5.38;;
24619;SDS011;12763;55.802;37.404;2023-07-31T04:30:42;14.70;;;5.45;;
24619;SDS011;12763;55.802;37.404;2023-07-31T04:33:09;9.80;;;5.55;;
24619;SDS011;12763;55.802;37.404;2023-07-31T04:35:35;21.05;;;5.35;;
24619;SDS011;12763;55.802;37.404;2023-07-31T04:38:00;13.23;;;5.75;;
24619;SDS011;12763;55.802;37.404;2023-07-31T04:40:26;11.98;;;5.03;;
24619;SDS011;12763;55.802;37.404;2023-07-31T04:42:52;13.00;;;4.88;;
24619;SDS011;12763;55.802;37.404;2023-07-31T04:45:18;11.02;;;4.90;;
24619;SDS011;12763;55.802;37.404;2023-07-31T04:47:44;12.65;;;5.40;;
24619;SDS011;12763;55.802;37.404;2023-07-31T04:50:10;9.23;;;4.72;;
24619;SDS011;12763;55.802;37.404;2023-07-31T04:52:35;11.82;;;4.35;;
24619;SDS011;12763;55.802;37.404;2023-07-31T04:55:01;13.93;;;5.22;;
24619;SDS011;12763;55.802;37.404;2023-07-31T04:57:30;6.57;;;4.53;;
24619;SDS011;12763;55.802;37.404;2023-07-31T04:59:55;11.45;;;5.13;;
24619;SDS011;12763;55.802;37.404;2023-07-31T05:02:21;9.95;;;4.32;;
24619;SDS011;12763;55.802;37.404;2023-07-31T05:04:47;8.27;;;4.40;;
24619;SDS011;12763;55.802;37.404;2023-07-31T05:07:13;11.18;;;4.70;;
24619;SDS011;12763;55.802;37.404;2023-07-31T05:09:39;8.10;;;4.63;;
24619;SDS011;12763;55.802;37.404;2023-07-31T05:12:05;10.32;;;4.32;;
24619;SDS011;12763;55.802;37.404;2023-07-31T05:14:31;10.45;;;4.70;;
24619;SDS011;12763;55.802;37.404;2023-07-31T05:16:57;12.23;;;4.70;;
24619;SDS011;12763;55.802;37.404;2023-07-31T05:19:23;11.90;;;4.78;;
24619;SDS011;12763;55.802;37.404;2023-07-31T05:21:48;12.80;;;4.65;;
24619;SDS011;12763;55.802;37.404;2023-07-31T05:24:14;9.15;;;5.00;;
24619;SDS011;12763;55.802;37.404;2023-07-31T05:26:40;15.60;;;4.13;;
24619;SDS011;12763;55.802;37.404;2023-07-31T05:29:06;17.20;;;5.20;;
24619;SDS011;12763;55.802;37.404;2023-07-31T05:31:32;13.73;;;5.10;;
24619;SDS011;12763;55.802;37.404;2023-07-31T05:33:58;14.68;;;5.07;;
24619;SDS011;12763;55.802;37.404;2023-07-31T05:36:23;7.95;;;4.43;;
24619;SDS011;12763;55.802;37.404;2023-07-31T05:38:49;10.75;;;4.05;;
24619;SDS011;12763;55.802;37.404;2023-07-31T05:41:15;10.00;;;4.45;;
24619;SDS011;12763;55.802;37.404;2023-07-31T05:43:41;11.93;;;4.18;;
24619;SDS011;12763;55.802;37.404;2023-07-31T05:46:09;10.00;;;3.85;;
24619;SDS011;12763;55.802;37.404;2023-07-31T05:48:34;8.48;;;4.40;;
24619;SDS011;12763;55.802;37.404;2023-07-31T05:51:00;16.40;;;4.80;;
24619;SDS011;12763;55.802;37.404;2023-07-31T05:53:26;8.60;;;3.75;;
24619;SDS011;12763;55.802;37.404;2023-07-31T05:55:52;9.82;;;4.32;;
24619;SDS011;12763;55.802;37.404;2023-07-31T05:58:18;13.18;;;4.10;;
24619;SDS011;12763;55.802;37.404;2023-07-31T06:00:44;10.05;;;3.97;;
24619;SDS011;12763;55.802;37.404;2023-07-31T06:03:10;7.35;;;3.67;;
24619;SDS011;12763;55.802;37.404;2023-07-31T06:05:36;6.60;;;3.42;;
24619;SDS011;12763;55.802;37.404;2023-07-31T06:08:02;7.40;;;3.95;;
24619;SDS011;12763;55.802;37.404;2023-07-31T06:10:28;14.13;;;3.83;;
24619;SDS011;12763;55.802;37.404;2023-07-31T06:12:54;6.57;;;3.17;;
24619;SDS011;12763;55.802;37.404;2023-07-31T06:15:20;7.93;;;3.17;;
24619;SDS011;12763;55.802;37.404;2023-07-31T06:17:46;9.73;;;3.35;;
24619;SDS011;12763;55.802;37.404;2023-07-31T06:20:11;7.40;;;3.42;;
24619;SDS011;12763;55.802;37.404;2023-07-31T06:22:37;13.25;;;3.25;;
24619;SDS011;12763;55.802;37.404;2023-07-31T06:25:03;11.77;;;2.85;;
24619;SDS011;12763;55.802;37.404;2023-07-31T06:27:30;5.18;;;2.72;;
24619;SDS011;12763;55.802;37.404;2023-07-31T06:29:56;8.82;;;2.85;;
24619;SDS011;12763;55.802;37.404;2023-07-31T06:32:23;2.95;;;2.10;;
24619;SDS011;12763;55.802;37.404;2023-07-31T06:34:49;7.13;;;2.58;;
24619;SDS011;12763;55.802;37.404;2023-07-31T06:37:15;3.97;;;2.47;;
24619;SDS011;12763;55.802;37.404;2023-07-31T06:39:42;5.55;;;2.45;;
24619;SDS011;12763;55.802;37.404;2023-07-31T06:42:08;6.80;;;2.97;;
24619;SDS011;12763;55.802;37.404;2023-07-31T06:44:34;4.03;;;2.58;;
24619;SDS011;12763;55.802;37.404;2023-07-31T06:47:01;6.93;;;2.58;;
24619;SDS011;12763;55.802;37.404;2023-07-31T06:49:27;6.25;;;2.45;;
24619;SDS011;12763;55.802;37.404;2023-07-31T06:51:53;9.10;;;2.50;;
24619;SDS011;12763;55.802;37.404;2023-07-31T06:54:19;7.88;;;2.28;;
24619;SDS011;12763;55.802;37.404;2023-07-31T06:56:45;8.20;;;2.42;;
24619;SDS011;12763;55.802;37.404;2023-07-31T06:59:11;5.43;;;2.78;;
24619;SDS011;12763;55.802;37.404;2023-07-31T07:01:37;2.65;;;1.90;;
24619;SDS011;12763;55.802;37.404;2023-07-31T07:04:03;9.00;;;2.25;;
24619;SDS011;12763;55.802;37.404;2023-07-31T07:06:29;6.57;;;1.95;;
24619;SDS011;12763;55.802;37.404;2023-07-31T07:08:54;5.55;;;2.33;;
24619;SDS011;12763;55.802;37.404;2023-07-31T07:11:20;4.40;;;2.15;;
24619;SDS011;12763;55.802;37.404;2023-07-31T07:13:46;2.53;;;2.00;;
24619;SDS011;12763;55.802;37.404;2023-07-31T07:16:12;5.93;;;1.88;;
24619;SDS011;12763;55.802;37.404;2023-07-31T07:18:38;2.53;;;1.63;;
24619;SDS011;12763;55.802;37.404;2023-07-31T07:21:03;3.75;;;1.80;;
24619;SDS011;12763;55.802;37.404;2023-07-31T07:23:29;2.88;;;1.77;;
24619;SDS011;12763;55.802;37.404;2023-07-31T07:25:55;2.60;;;1.38;;
24619;SDS011;12763;55.802;37.404;2023-07-31T07:28:21;3.13;;;1.95;;
24619;SDS011;12763;55.802;37.404;2023-07-31T07:30:53;1.98;;;1.63;;
24619;SDS011;12763;55.802;37.404;2023-07-31T07:33:19;2.45;;;1.50;;
24619;SDS011;12763;55.802;37.404;2023-07-31T07:35:47;2.45;;;1.58;;
24619;SDS011;12763;55.802;37.404;2023-07-31T07:38:13;3.17;;;1.65;;
24619;SDS011;12763;55.802;37.404;2023-07-31T07:40:40;5.68;;;1.83;;
24619;SDS011;12763;55.802;37.404;2023-07-31T07:43:07;2.25;;;1.42;;
24619;SDS011;12763;55.802;37.404;2023-07-31T07:45:33;2.90;;;1.30;;
24619;SDS011;12763;55.802;37.404;2023-07-31T07:47:59;2.30;;;1.50;;
24619;SDS011;12763;55.802;37.404;2023-07-31T07:50:25;2.33;;;1.75;;
24619;SDS011;12763;55.802;37.404;2023-07-31T07:52:51;3.28;;;1.70;;
24619;SDS011;12763;55.802;37.404;2023-07-31T07:55:17;4.88;;;1.80;;
24619;SDS011;12763;55.802;37.404;2023-07-31T07:57:43;4.80;;;2.10;;
24619;SDS011;12763;55.802;37.404;2023-07-31T08:00:11;4.70;;;1.83;;
24619;SDS011;12763;55.802;37.404;2023-07-31T08:02:42;3.38;;;1.65;;
24619;SDS011;12763;55.802;37.404;2023-07-31T08:05:09;3.67;;;1.98;;
24619;SDS011;12763;55.802;37.404;2023-07-31T08:07:35;3.92;;;1.88;;
24619;SDS011;12763;55.802;37.404;2023-07-31T08:10:00;7.13;;;1.90;;
24619;SDS011;12763;55.802;37.404;2023-07-31T08:12:26;3.00;;;1.55;;
24619;SDS011;12763;55.802;37.404;2023-07-31T08:14:52;3.20;;;1.85;;
24619;SDS011;12763;55.802;37.404;2023-07-31T08:17:18;2.67;;;1.88;;
24619;SDS011;12763;55.802;37.404;2023-07-31T08:19:44;4.07;;;1.80;;
24619;SDS011;12763;55.802;37.404;2023-07-31T08:22:10;3.15;;;1.90;;
24619;SDS011;12763;55.802;37.404;2023-07-31T08:24:36;2.10;;;1.58;;
24619;SDS011;12763;55.802;37.404;2023-07-31T08:27:02;4.18;;;1.80;;
24619;SDS011;12763;55.802;37.404;2023-07-31T08:29:28;3.30;;;1.92;;
24619;SDS011;12763;55.802;37.404;2023-07-31T08:31:53;2.58;;;1.83;;
24619;SDS011;12763;55.802;37.404;2023-07-31T08:34:19;3.10;;;2.40;;
24619;SDS011;12763;55.802;37.404;2023-07-31T08:36:45;4.15;;;2.20;;
24619;SDS011;12763;55.802;37.404;2023-07-31T08:39:11;6.38;;;1.98;;
24619;SDS011;12763;55.802;37.404;2023-07-31T08:41:37;4.57;;;2.20;;
24619;SDS011;12763;55.802;37.404;2023-07-31T08:44:04;3.47;;;2.10;;
24619;SDS011;12763;55.802;37.404;2023-07-31T08:46:32;3.78;;;1.90;;
24619;SDS011;12763;55.802;37.404;2023-07-31T08:48:58;2.83;;;2.10;;
24619;SDS011;12763;55.802;37.404;2023-07-31T08:51:25;2.20;;;1.98;;
24619;SDS011;12763;55.802;37.404;2023-07-31T08:53:52;2.95;;;2.17;;
24619;SDS011;12763;55.802;37.404;2023-07-31T08:56:18;5.20;;;2.05;;
24619;SDS011;12763;55.802;37.404;2023-07-31T08:58:45;4.35;;;2.08;;
24619;SDS011;12763;55.802;37.404;2023-07-31T09:01:12;3.22;;;1.88;;
24619;SDS011;12763;55.802;37.404;2023-07-31T09:03:40;2.50;;;1.92;;
24619;SDS011;12763;55.802;37.404;2023-07-31T09:06:07;4.95;;;2.28;;
24619;SDS011;12763;55.802;37.404;2023-07-31T09:08:33;2.53;;;1.83;;
24619;SDS011;12763;55.802;37.404;2023-07-31T09:11:00;4.97;;;2.03;;
24619;SDS011;12763;55.802;37.404;2023-07-31T09:13:30;5.45;;;2.33;;
24619;SDS011;12763;55.802;37.404;2023-07-31T09:15:56;2.90;;;1.95;;
24619;SDS011;12763;55.802;37.404;2023-07-31T09:18:22;4.13;;;2.05;;
24619;SDS011;12763;55.802;37.404;2023-07-31T09:21:01;3.70;;;1.80;;
24619;SDS011;12763;55.802;37.404;2023-07-31T09:23:39;4.75;;;2.00;;
24619;SDS011;12763;55.802;37.404;2023-07-31T09:26:09;2.72;;;2.08;;
24619;SDS011;12763;55.802;37.404;2023-07-31T09:28:36;3.25;;;1.90;;
24619;SDS011;12763;55.802;37.404;2023-07-31T09:31:02;2.22;;;1.90;;
24619;SDS011;12763;55.802;37.404;2023-07-31T09:33:28;5.05;;;2.10;;
24619;SDS011;12763;55.802;37.404;2023-07-31T09:35:57;2.85;;;1.98;;
24619;SDS011;12763;55.802;37.404;2023-07-31T09:38:24;2.97;;;1.70;;
24619;SDS011;12763;55.802;37.404;2023-07-31T09:40:50;4.38;;;1.90;;
24619;SDS011;12763;55.802;37.404;2023-07-31T09:43:19;2.05;;;1.85;;
24619;SDS011;12763;55.802;37.404;2023-07-31T09:45:46;4.05;;;2.20;;
24619;SDS011;12763;55.802;37.404;2023-07-31T09:48:14;3.17;;;1.80;;
24619;SDS011;12763;55.802;37.404;2023-07-31T09:50:42;2.75;;;2.08;;
24619;SDS011;12763;55.802;37.404;2023-07-31T09:53:13;5.72;;;2.13;;
24619;SDS011;12763;55.802;37.404;2023-07-31T09:55:40;4.13;;;2.00;;
24619;SDS011;12763;55.802;37.404;2023-07-31T09:58:07;4.15;;;2.20;;
24619;SDS011;12763;55.802;37.404;2023-07-31T10:00:37;6.93;;;2.92;;
24619;SDS011;12763;55.802;37.404;2023-07-31T10:03:07;3.60;;;1.90;;
24619;SDS011;12763;55.802;37.404;2023-07-31T10:05:35;2.65;;;1.92;;
24619;SDS011;12763;55.802;37.404;2023-07-31T10:08:03;3.20;;;1.92;;
24619;SDS011;12763;55.802;37.404;2023-07-31T10:10:30;2.28;;;2.05;;
24619;SDS011;12763;55.802;37.404;2023-07-31T10:12:59;6.35;;;2.40;;
24619;SDS011;12763;55.802;37.404;2023-07-31T10:15:26;4.75;;;2.33;;
24619;SDS011;12763;55.802;37.404;2023-07-31T10:17:53;3.38;;;1.95;;
24619;SDS011;12763;55.802;37.404;2023-07-31T10:20:21;5.10;;;2.00;;
24619;SDS011;12763;55.802;37.404;2023-07-31T10:22:47;3.95;;;1.73;;
24619;SDS011;12763;55.802;37.404;2023-07-31T10:25:14;2.70;;;2.03;;
24619;SDS011;12763;55.802;37.404;2023-07-31T10:27:41;2.50;;;2.00;;
24619;SDS011;12763;55.802;37.404;2023-07-31T10:30:08;3.92;;;2.08;;
24619;SDS011;12763;55.802;37.404;2023-07-31T10:32:38;6.07;;;2.05;;
24619;SDS011;12763;55.802;37.404;2023-07-31T10:35:07;2.97;;;2.08;;
24619;SDS011;12763;55.802;37.404;2023-07-31T10:37:41;5.05;;;2.25;;
24619;SDS011;12763;55.802;37.404;2023-07-31T10:40:12;3.28;;;2.17;;
24619;SDS011;12763;55.802;37.404;2023-07-31T10:42:46;4.90;;;2.40;;
24619;SDS011;12763;55.802;37.404;2023-07-31T10:45:13;6.10;;;2.08;;
24619;SDS011;12763;55.802;37.404;2023-07-31T10:47:43;2.20;;;1.85;;
24619;SDS011;12763;55.802;37.404;2023-07-31T10:50:11;4.72;;;2.13;;
24619;SDS011;12763;55.802;37.404;2023-07-31T10:52:49;2.75;;;2.08;;
24619;SDS011;12763;55.802;37.404;2023-07-31T10:58:09;3.28;;;1.90;;
24619;SDS011;12763;55.802;37.404;2023-07-31T11:00:46;2.58;;;1.95;;
24619;SDS011;12763;55.802;37.404;2023-07-31T11:03:16;2.50;;;1.98;;
24619;SDS011;12763;55.802;37.404;2023-07-31T11:08:12;3.67;;;2.03;;
24619;SDS011;12763;55.802;37.404;2023-07-31T11:10:38;3.38;;;2.00;;
24619;SDS011;12763;55.802;37.404;2023-07-31T11:13:04;5.90;;;2.15;;
24619;SDS011;12763;55.802;37.404;2023-07-31T11:15:31;4.32;;;2.25;;
24619;SDS011;12763;55.802;37.404;2023-07-31T11:17:57;2.10;;;1.80;;
24619;SDS011;12763;55.802;37.404;2023-07-31T11:20:31;3.67;;;2.05;;
24619;SDS011;12763;55.802;37.404;2023-07-31T11:23:01;4.07;;;1.90;;
24619;SDS011;12763;55.802;37.404;2023-07-31T11:25:29;3.33;;;1.98;;
24619;SDS011;12763;55.802;37.404;2023-07-31T11:27:57;3.92;;;2.05;;
24619;SDS011;12763;55.802;37.404;2023-07-31T11:30:33;2.80;;;1.90;;
24619;SDS011;12763;55.802;37.404;2023-07-31T11:33:03;3.38;;;2.22;;
24619;SDS011;12763;55.802;37.404;2023-07-31T11:35:31;4.72;;;2.00;;
24619;SDS011;12763;55.802;37.404;2023-07-31T11:38:01;4.13;;;1.92;;
24619;SDS011;12763;55.802;37.404;2023-07-31T11:40:28;2.80;;;2.10;;
24619;SDS011;12763;55.802;37.404;2023-07-31T11:42:58;4.88;;;2.15;;
24619;SDS011;12763;55.802;37.404;2023-07-31T11:45:29;4.07;;;2.10;;
24619;SDS011;12763;55.802;37.404;2023-07-31T11:47:56;3.88;;;2.35;;
24619;SDS011;12763;55.802;37.404;2023-07-31T11:50:23;3.03;;;2.28;;
24619;SDS011;12763;55.802;37.404;2023-07-31T11:53:04;2.38;;;1.90;;
24619;SDS011;12763;55.802;37.404;2023-07-31T11:55:33;3.20;;;2.10;;
24619;SDS011;12763;55.802;37.404;2023-07-31T11:57:59;2.88;;;1.90;;
24619;SDS011;12763;55.802;37.404;2023-07-31T12:00:26;3.45;;;2.25;;
24619;SDS011;12763;55.802;37.404;2023-07-31T12:02:52;3.53;;;2.60;;
24619;SDS011;12763;55.802;37.404;2023-07-31T12:05:19;7.05;;;2.80;;
24619;SDS011;12763;55.802;37.404;2023-07-31T12:07:46;3.45;;;2.40;;
24619;SDS011;12763;55.802;37.404;2023-07-31T12:10:23;3.90;;;2.53;;
24619;SDS011;12763;55.802;37.404;2023-07-31T12:13:05;7.03;;;2.40;;
24619;SDS011;12763;55.802;37.404;2023-07-31T12:15:32;2.70;;;2.40;;
24619;SDS011;12763;55.802;37.404;2023-07-31T12:18:05;4.38;;;2.70;;
24619;SDS011;12763;55.802;37.404;2023-07-31T12:20:39;7.88;;;3.17;;
24619;SDS011;12763;55.802;37.404;2023-07-31T12:23:20;3.78;;;2.80;;
24619;SDS011;12763;55.802;37.404;2023-07-31T12:26:00;3.30;;;2.70;;
24619;SDS011;12763;55.802;37.404;2023-07-31T12:28:26;3.55;;;2.72;;
24619;SDS011;12763;55.802;37.404;2023-07-31T12:30:51;3.67;;;2.95;;
24619;SDS011;12763;55.802;37.404;2023-07-31T12:33:23;9.38;;;3.10;;
24619;SDS011;12763;55.802;37.404;2023-07-31T12:35:49;4.30;;;2.65;;
24619;SDS011;12763;55.802;37.404;2023-07-31T12:38:15;6.10;;;3.17;;
24619;SDS011;12763;55.802;37.404;2023-07-31T12:40:41;3.72;;;2.88;;
24619;SDS011;12763;55.802;37.404;2023-07-31T12:43:07;7.57;;;3.28;;
24619;SDS011;12763;55.802;37.404;2023-07-31T12:45:34;3.88;;;2.70;;
24619;SDS011;12763;55.802;37.404;2023-07-31T12:48:01;5.35;;;2.70;;
24619;SDS011;12763;55.802;37.404;2023-07-31T12:50:27;6.65;;;2.65;;
24619;SDS011;12763;55.802;37.404;2023-07-31T12:52:53;8.90;;;3.05;;
24619;SDS011;12763;55.802;37.404;2023-07-31T12:55:20;9.25;;;2.92;;
24619;SDS011;12763;55.802;37.404;2023-07-31T12:57:46;5.47;;;2.85;;
24619;SDS011;12763;55.802;37.404;2023-07-31T13:00:12;7.75;;;2.80;;
24619;SDS011;12763;55.802;37.404;2023-07-31T13:02:39;8.00;;;3.00;;
24619;SDS011;12763;55.802;37.404;2023-07-31T13:05:05;7.30;;;3.08;;
24619;SDS011;12763;55.802;37.404;2023-07-31T13:07:31;7.35;;;3.17;;
24619;SDS011;12763;55.802;37.404;2023-07-31T13:09:57;9.73;;;2.67;;
24619;SDS011;12763;55.802;37.404;2023-07-31T13:12:22;7.18;;;2.88;;
24619;SDS011;12763;55.802;37.404;2023-07-31T13:14:49;13.75;;;3.00;;
24619;SDS011;12763;55.802;37.404;2023-07-31T13:17:16;5.32;;;3.05;;
24619;SDS011;12763;55.802;37.404;2023-07-31T13:19:42;6.43;;;2.83;;
24619;SDS011;12763;55.802;37.404;2023-07-31T13:22:08;5.90;;;3.53;;
24619;SDS011;12763;55.802;37.404;2023-07-31T13:24:34;9.05;;;3.70;;
24619;SDS011;12763;55.802;37.404;2023-07-31T13:27:00;4.97;;;3.05;;
24619;SDS011;12763;55.802;37.404;2023-07-31T13:29:26;7.07;;;2.63;;
24619;SDS011;12763;55.802;37.404;2023-07-31T13:31:52;4.90;;;2.40;;
24619;SDS011;12763;55.802;37.404;2023-07-31T13:34:18;3.97;;;2.45;;
24619;SDS011;12763;55.802;37.404;2023-07-31T13:36:44;4.80;;;2.70;;
24619;SDS011;12763;55.802;37.404;2023-07-31T13:39:11;4.82;;;2.47;;
24619;SDS011;12763;55.802;37.404;2023-07-31T13:41:37;3.70;;;2.40;;
24619;SDS011;12763;55.802;37.404;2023-07-31T13:44:04;11.65;;;2.72;;
24619;SDS011;12763;55.802;37.404;2023-07-31T13:46:30;4.95;;;2.75;;
24619;SDS011;12763;55.802;37.404;2023-07-31T13:48:58;9.38;;;2.67;;
24619;SDS011;12763;55.802;37.404;2023-07-31T13:51:25;3.25;;;2.40;;
24619;SDS011;12763;55.802;37.404;2023-07-31T13:53:53;4.07;;;2.53;;
24619;SDS011;12763;55.802;37.404;2023-07-31T13:56:19;8.23;;;3.08;;
24619;SDS011;12763;55.802;37.404;2023-07-31T13:58:45;6.18;;;2.88;;
24619;SDS011;12763;55.802;37.404;2023-07-31T14:01:10;9.85;;;2.85;;
24619;SDS011;12763;55.802;37.404;2023-07-31T14:03:36;4.32;;;2.72;;
24619;SDS011;12763;55.802;37.404;2023-07-31T14:06:02;7.15;;;3.22;;
24619;SDS011;12763;55.802;37.404;2023-07-31T14:08:28;7.32;;;3.03;;
24619;SDS011;12763;55.802;37.404;2023-07-31T14:10:55;7.07;;;2.90;;
24619;SDS011;12763;55.802;37.404;2023-07-31T14:13:21;7.80;;;2.90;;
24619;SDS011;12763;55.802;37.404;2023-07-31T14:15:47;3.90;;;2.83;;
24619;SDS011;12763;55.802;37.404;2023-07-31T14:18:13;5.57;;;3.00;;
24619;SDS011;12763;55.802;37.404;2023-07-31T14:20:39;7.75;;;3.22;;
24619;SDS011;12763;55.802;37.404;2023-07-31T14:23:05;6.68;;;2.60;;
24619;SDS011;12763;55.802;37.404;2023-07-31T14:25:31;6.25;;;2.67;;
24619;SDS011;12763;55.802;37.404;2023-07-31T14:27:57;4.97;;;3.42;;
24619;SDS011;12763;55.802;37.404;2023-07-31T14:30:23;4.93;;;2.47;;
24619;SDS011;12763;55.802;37.404;2023-07-31T14:32:49;6.88;;;3.20;;
24619;SDS011;12763;55.802;37.404;2023-07-31T14:35:15;6.72;;;2.78;;
24619;SDS011;12763;55.802;37.404;2023-07-31T14:37:41;6.60;;;2.80;;
24619;SDS011;12763;55.802;37.404;2023-07-31T14:40:10;6.95;;;3.10;;
24619;SDS011;12763;55.802;37.404;2023-07-31T14:42:37;7.28;;;2.80;;
24619;SDS011;12763;55.802;37.404;2023-07-31T14:45:04;6.43;;;3.08;;